sensor_id;sensor_type;location;lat;lon;timestamp;P1;durP1;ratioP1;P2;durP2;ratioP2
27558;SDS011;15002;52.028;5.670;2022-12-18T00:02:00;62.40;;;26.25;;
27558;SDS011;15002;52.028;5.670;2022-12-18T00:04:26;66.10;;;24.23;;
27558;SDS011;15002;52.028;5.670;2022-12-18T00:06:52;72.45;;;25.60;;
27558;SDS011;15002;52.028;5.670;2022-12-18T00:09:19;54.00;;;24.02;;
27558;SDS011;15002;52.028;5.670;2022-12-18T00:11:45;68.28;;;24.45;;
27558;SDS011;15002;52.028;5.670;2022-12-18T00:14:11;60.88;;;23.60;;
27558;SDS011;15002;52.028;5.670;2022-12-18T00:16:38;57.58;;;22.15;;
27558;SDS011;15002;52.028;5.670;2022-12-18T00:19:04;62.40;;;24.33;;
27558;SDS011;15002;52.028;5.670;2022-12-18T00:21:31;67.35;;;25.85;;
27558;SDS011;15002;52.028;5.670;2022-12-18T00:23:58;56.65;;;23.45;;
27558;SDS011;15002;52.028;5.670;2022-12-18T00:26:28;59.35;;;22.60;;
27558;SDS011;15002;52.028;5.670;2022-12-18T00:31:24;57.75;;;21.55;;
27558;SDS011;15002;52.028;5.670;2022-12-18T00:33:50;58.22;;;22.63;;
27558;SDS011;15002;52.028;5.670;2022-12-18T00:36:17;64.85;;;22.98;;
27558;SDS011;15002;52.028;5.670;2022-12-18T00:38:47;50.03;;;21.40;;
27558;SDS011;15002;52.028;5.670;2022-12-18T00:41:14;46.90;;;20.75;;
27558;SDS011;15002;52.028;5.670;2022-12-18T00:44:03;57.43;;;21.93;;
27558;SDS011;15002;52.028;5.670;2022-12-18T00:46:30;51.20;;;23.20;;
27558;SDS011;15002;52.028;5.670;2022-12-18T00:48:56;57.25;;;21.73;;
27558;SDS011;15002;52.028;5.670;2022-12-18T00:51:22;58.28;;;23.33;;
27558;SDS011;15002;52.028;5.670;2022-12-18T00:53:48;53.45;;;22.73;;
27558;SDS011;15002;52.028;5.670;2022-12-18T00:56:14;55.60;;;21.63;;
27558;SDS011;15002;52.028;5.670;2022-12-18T00:58:39;51.20;;;20.27;;
27558;SDS011;15002;52.028;5.670;2022-12-18T01:01:05;57.08;;;20.90;;
27558;SDS011;15002;52.028;5.670;2022-12-18T01:03:31;50.58;;;21.92;;
27558;SDS011;15002;52.028;5.670;2022-12-18T01:05:57;57.45;;;22.75;;
27558;SDS011;15002;52.028;5.670;2022-12-18T01:08:23;49.60;;;21.10;;
27558;SDS011;15002;52.028;5.670;2022-12-18T01:10:49;50.05;;;20.25;;
27558;SDS011;15002;52.028;5.670;2022-12-18T01:13:14;52.53;;;21.45;;
27558;SDS011;15002;52.028;5.670;2022-12-18T01:15:40;47.25;;;20.77;;
27558;SDS011;15002;52.028;5.670;2022-12-18T01:18:14;53.65;;;21.45;;
27558;SDS011;15002;52.028;5.670;2022-12-18T01:20:39;48.10;;;20.90;;
27558;SDS011;15002;52.028;5.670;2022-12-18T01:23:05;56.80;;;21.50;;
27558;SDS011;15002;52.028;5.670;2022-12-18T01:25:31;48.63;;;21.23;;
27558;SDS011;15002;52.028;5.670;2022-12-18T01:27:56;46.72;;;20.67;;
27558;SDS011;15002;52.028;5.670;2022-12-18T01:30:22;48.40;;;21.80;;
27558;SDS011;15002;52.028;5.670;2022-12-18T01:32:48;54.78;;;21.15;;
27558;SDS011;15002;52.028;5.670;2022-12-18T01:35:14;47.90;;;19.80;;
27558;SDS011;15002;52.028;5.670;2022-12-18T01:37:39;50.90;;;20.67;;
27558;SDS011;15002;52.028;5.670;2022-12-18T01:40:05;50.67;;;20.48;;
27558;SDS011;15002;52.028;5.670;2022-12-18T01:42:31;47.75;;;21.90;;
27558;SDS011;15002;52.028;5.670;2022-12-18T01:45:39;49.00;;;21.20;;
27558;SDS011;15002;52.028;5.670;2022-12-18T01:47:54;39.08;;;19.02;;
27558;SDS011;15002;52.028;5.670;2022-12-18T01:50:23;44.90;;;19.27;;
27558;SDS011;15002;52.028;5.670;2022-12-18T01:55:26;40.20;;;17.98;;
27558;SDS011;15002;52.028;5.670;2022-12-18T01:57:55;36.92;;;17.33;;
27558;SDS011;15002;52.028;5.670;2022-12-18T02:00:22;38.17;;;17.30;;
27558;SDS011;15002;52.028;5.670;2022-12-18T02:02:49;42.25;;;19.10;;
27558;SDS011;15002;52.028;5.670;2022-12-18T02:05:16;41.83;;;18.25;;
27558;SDS011;15002;52.028;5.670;2022-12-18T02:08:07;42.67;;;16.70;;
27558;SDS011;15002;52.028;5.670;2022-12-18T02:10:43;38.25;;;16.90;;
27558;SDS011;15002;52.028;5.670;2022-12-18T02:13:27;37.53;;;16.77;;
27558;SDS011;15002;52.028;5.670;2022-12-18T02:16:15;34.40;;;16.70;;
27558;SDS011;15002;52.028;5.670;2022-12-18T02:18:50;40.78;;;18.73;;
27558;SDS011;15002;52.028;5.670;2022-12-18T02:26:48;34.67;;;16.55;;
27558;SDS011;15002;52.028;5.670;2022-12-18T02:29:36;34.40;;;16.27;;
27558;SDS011;15002;52.028;5.670;2022-12-18T02:32:15;35.60;;;16.60;;
27558;SDS011;15002;52.028;5.670;2022-12-18T02:34:49;41.30;;;16.90;;
27558;SDS011;15002;52.028;5.670;2022-12-18T02:37:17;34.83;;;16.92;;
27558;SDS011;15002;52.028;5.670;2022-12-18T02:39:44;37.33;;;17.67;;
27558;SDS011;15002;52.028;5.670;2022-12-18T02:42:12;35.15;;;16.70;;
27558;SDS011;15002;52.028;5.670;2022-12-18T02:44:46;32.65;;;16.80;;
27558;SDS011;15002;52.028;5.670;2022-12-18T02:47:14;38.47;;;16.10;;
27558;SDS011;15002;52.028;5.670;2022-12-18T02:55:00;36.72;;;16.92;;
27558;SDS011;15002;52.028;5.670;2022-12-18T02:58:04;36.20;;;17.45;;
27558;SDS011;15002;52.028;5.670;2022-12-18T03:00:59;33.55;;;15.50;;
27558;SDS011;15002;52.028;5.670;2022-12-18T03:03:34;37.38;;;16.35;;
27558;SDS011;15002;52.028;5.670;2022-12-18T03:06:08;33.35;;;15.70;;
27558;SDS011;15002;52.028;5.670;2022-12-18T03:08:41;39.13;;;17.65;;
27558;SDS011;15002;52.028;5.670;2022-12-18T03:11:11;26.43;;;13.20;;
27558;SDS011;15002;52.028;5.670;2022-12-18T03:13:46;34.90;;;16.98;;
27558;SDS011;15002;52.028;5.670;2022-12-18T03:16:17;34.28;;;15.90;;
27558;SDS011;15002;52.028;5.670;2022-12-18T03:18:56;37.47;;;16.27;;
27558;SDS011;15002;52.028;5.670;2022-12-18T03:21:31;34.70;;;16.45;;
27558;SDS011;15002;52.028;5.670;2022-12-18T03:24:01;31.25;;;16.38;;
27558;SDS011;15002;52.028;5.670;2022-12-18T03:26:30;32.67;;;16.97;;
27558;SDS011;15002;52.028;5.670;2022-12-18T03:28:59;34.65;;;15.65;;
27558;SDS011;15002;52.028;5.670;2022-12-18T03:31:29;35.60;;;16.60;;
27558;SDS011;15002;52.028;5.670;2022-12-18T03:34:04;29.25;;;16.38;;
27558;SDS011;15002;52.028;5.670;2022-12-18T03:36:36;30.92;;;15.02;;
27558;SDS011;15002;52.028;5.670;2022-12-18T03:39:02;32.22;;;15.77;;
27558;SDS011;15002;52.028;5.670;2022-12-18T03:41:32;27.88;;;13.88;;
27558;SDS011;15002;52.028;5.670;2022-12-18T03:44:36;31.20;;;14.45;;
27558;SDS011;15002;52.028;5.670;2022-12-18T03:47:35;29.90;;;14.90;;
27558;SDS011;15002;52.028;5.670;2022-12-18T03:50:27;27.40;;;13.63;;
27558;SDS011;15002;52.028;5.670;2022-12-18T03:52:57;31.45;;;14.90;;
27558;SDS011;15002;52.028;5.670;2022-12-18T03:55:30;24.58;;;14.07;;
27558;SDS011;15002;52.028;5.670;2022-12-18T03:57:58;28.85;;;13.52;;
27558;SDS011;15002;52.028;5.670;2022-12-18T04:00:26;31.25;;;13.68;;
27558;SDS011;15002;52.028;5.670;2022-12-18T04:02:54;30.58;;;13.88;;
27558;SDS011;15002;52.028;5.670;2022-12-18T04:05:21;29.13;;;13.63;;
27558;SDS011;15002;52.028;5.670;2022-12-18T04:07:50;24.67;;;13.57;;
27558;SDS011;15002;52.028;5.670;2022-12-18T04:10:17;24.25;;;14.05;;
27558;SDS011;15002;52.028;5.670;2022-12-18T04:12:43;25.30;;;13.82;;
27558;SDS011;15002;52.028;5.670;2022-12-18T04:15:09;32.95;;;14.40;;
27558;SDS011;15002;52.028;5.670;2022-12-18T04:17:36;26.67;;;13.75;;
27558;SDS011;15002;52.028;5.670;2022-12-18T04:20:02;23.80;;;12.35;;
27558;SDS011;15002;52.028;5.670;2022-12-18T04:22:28;28.92;;;13.63;;
27558;SDS011;15002;52.028;5.670;2022-12-18T04:24:54;24.20;;;13.45;;
27558;SDS011;15002;52.028;5.670;2022-12-18T04:27:19;27.88;;;13.30;;
27558;SDS011;15002;52.028;5.670;2022-12-18T04:29:45;25.25;;;13.50;;
27558;SDS011;15002;52.028;5.670;2022-12-18T04:32:11;24.58;;;12.57;;
27558;SDS011;15002;52.028;5.670;2022-12-18T04:34:36;25.73;;;13.18;;
27558;SDS011;15002;52.028;5.670;2022-12-18T04:37:02;31.05;;;13.65;;
27558;SDS011;15002;52.028;5.670;2022-12-18T04:39:27;26.42;;;12.93;;
27558;SDS011;15002;52.028;5.670;2022-12-18T04:41:53;25.90;;;13.32;;
27558;SDS011;15002;52.028;5.670;2022-12-18T04:44:19;22.25;;;12.68;;
27558;SDS011;15002;52.028;5.670;2022-12-18T04:46:44;26.08;;;13.32;;
27558;SDS011;15002;52.028;5.670;2022-12-18T04:49:10;20.23;;;11.52;;
27558;SDS011;15002;52.028;5.670;2022-12-18T04:51:36;27.92;;;13.13;;
27558;SDS011;15002;52.028;5.670;2022-12-18T04:54:02;27.02;;;13.18;;
27558;SDS011;15002;52.028;5.670;2022-12-18T04:56:28;19.83;;;11.70;;
27558;SDS011;15002;52.028;5.670;2022-12-18T04:58:55;21.27;;;12.05;;
27558;SDS011;15002;52.028;5.670;2022-12-18T05:01:20;28.85;;;13.35;;
27558;SDS011;15002;52.028;5.670;2022-12-18T05:03:46;25.65;;;12.68;;
27558;SDS011;15002;52.028;5.670;2022-12-18T05:06:12;22.65;;;11.88;;
27558;SDS011;15002;52.028;5.670;2022-12-18T05:08:38;24.63;;;12.50;;
27558;SDS011;15002;52.028;5.670;2022-12-18T05:11:13;21.33;;;11.45;;
27558;SDS011;15002;52.028;5.670;2022-12-18T05:13:43;21.85;;;11.80;;
27558;SDS011;15002;52.028;5.670;2022-12-18T05:16:09;23.35;;;11.35;;
27558;SDS011;15002;52.028;5.670;2022-12-18T05:18:36;28.20;;;11.90;;
27558;SDS011;15002;52.028;5.670;2022-12-18T05:21:01;22.80;;;11.77;;
27558;SDS011;15002;52.028;5.670;2022-12-18T05:23:28;24.55;;;11.85;;
27558;SDS011;15002;52.028;5.670;2022-12-18T05:25:56;21.88;;;10.77;;
27558;SDS011;15002;52.028;5.670;2022-12-18T05:28:24;19.73;;;11.48;;
27558;SDS011;15002;52.028;5.670;2022-12-18T05:30:52;21.42;;;10.80;;
27558;SDS011;15002;52.028;5.670;2022-12-18T05:33:19;20.67;;;11.57;;
27558;SDS011;15002;52.028;5.670;2022-12-18T05:35:50;20.67;;;10.50;;
27558;SDS011;15002;52.028;5.670;2022-12-18T05:38:20;24.05;;;12.43;;
27558;SDS011;15002;52.028;5.670;2022-12-18T05:40:47;22.02;;;11.15;;
27558;SDS011;15002;52.028;5.670;2022-12-18T05:43:17;24.85;;;10.48;;
27558;SDS011;15002;52.028;5.670;2022-12-18T05:45:43;21.65;;;10.98;;
27558;SDS011;15002;52.028;5.670;2022-12-18T05:48:12;18.95;;;9.88;;
27558;SDS011;15002;52.028;5.670;2022-12-18T05:50:38;20.05;;;9.85;;
27558;SDS011;15002;52.028;5.670;2022-12-18T05:53:05;20.90;;;9.98;;
27558;SDS011;15002;52.028;5.670;2022-12-18T05:55:35;24.23;;;10.65;;
27558;SDS011;15002;52.028;5.670;2022-12-18T05:58:02;21.25;;;11.25;;
27558;SDS011;15002;52.028;5.670;2022-12-18T06:00:29;21.45;;;10.65;;
27558;SDS011;15002;52.028;5.670;2022-12-18T06:02:55;20.23;;;11.00;;
27558;SDS011;15002;52.028;5.670;2022-12-18T06:05:21;18.98;;;10.60;;
27558;SDS011;15002;52.028;5.670;2022-12-18T06:07:46;22.13;;;10.88;;
27558;SDS011;15002;52.028;5.670;2022-12-18T06:10:12;22.58;;;11.60;;
27558;SDS011;15002;52.028;5.670;2022-12-18T06:12:37;21.45;;;10.63;;
27558;SDS011;15002;52.028;5.670;2022-12-18T06:15:03;19.85;;;11.55;;
27558;SDS011;15002;52.028;5.670;2022-12-18T06:17:33;20.83;;;12.20;;
27558;SDS011;15002;52.028;5.670;2022-12-18T06:19:59;18.95;;;11.00;;
27558;SDS011;15002;52.028;5.670;2022-12-18T06:22:25;23.17;;;11.23;;
27558;SDS011;15002;52.028;5.670;2022-12-18T06:24:51;21.70;;;11.48;;
27558;SDS011;15002;52.028;5.670;2022-12-18T06:27:16;19.50;;;11.15;;
27558;SDS011;15002;52.028;5.670;2022-12-18T06:29:42;22.65;;;11.18;;
27558;SDS011;15002;52.028;5.670;2022-12-18T06:32:08;22.20;;;11.43;;
27558;SDS011;15002;52.028;5.670;2022-12-18T06:34:33;21.30;;;11.40;;
27558;SDS011;15002;52.028;5.670;2022-12-18T06:37:01;17.35;;;9.82;;
27558;SDS011;15002;52.028;5.670;2022-12-18T06:39:27;23.38;;;11.73;;
27558;SDS011;15002;52.028;5.670;2022-12-18T06:41:53;23.42;;;11.68;;
27558;SDS011;15002;52.028;5.670;2022-12-18T06:44:19;18.48;;;10.63;;
27558;SDS011;15002;52.028;5.670;2022-12-18T06:46:45;19.80;;;10.57;;
27558;SDS011;15002;52.028;5.670;2022-12-18T06:49:10;17.27;;;10.32;;
27558;SDS011;15002;52.028;5.670;2022-12-18T06:51:36;25.17;;;12.57;;
27558;SDS011;15002;52.028;5.670;2022-12-18T06:54:02;24.23;;;11.18;;
27558;SDS011;15002;52.028;5.670;2022-12-18T06:56:28;19.60;;;11.00;;
27558;SDS011;15002;52.028;5.670;2022-12-18T06:58:54;21.45;;;10.43;;
27558;SDS011;15002;52.028;5.670;2022-12-18T07:01:20;23.00;;;11.65;;
27558;SDS011;15002;52.028;5.670;2022-12-18T07:03:46;21.63;;;12.20;;
27558;SDS011;15002;52.028;5.670;2022-12-18T07:06:13;20.38;;;11.00;;
27558;SDS011;15002;52.028;5.670;2022-12-18T07:08:40;21.27;;;11.10;;
27558;SDS011;15002;52.028;5.670;2022-12-18T07:11:05;21.27;;;11.65;;
27558;SDS011;15002;52.028;5.670;2022-12-18T07:13:31;20.08;;;11.00;;
27558;SDS011;15002;52.028;5.670;2022-12-18T07:16:04;22.25;;;12.18;;
27558;SDS011;15002;52.028;5.670;2022-12-18T07:18:30;21.45;;;11.73;;
27558;SDS011;15002;52.028;5.670;2022-12-18T07:20:56;17.17;;;11.07;;
27558;SDS011;15002;52.028;5.670;2022-12-18T07:23:21;23.98;;;12.00;;
27558;SDS011;15002;52.028;5.670;2022-12-18T07:25:47;18.30;;;11.07;;
27558;SDS011;15002;52.028;5.670;2022-12-18T07:28:12;22.23;;;10.65;;
27558;SDS011;15002;52.028;5.670;2022-12-18T07:30:39;22.85;;;11.85;;
27558;SDS011;15002;52.028;5.670;2022-12-18T07:33:05;22.73;;;11.70;;
27558;SDS011;15002;52.028;5.670;2022-12-18T07:35:32;19.40;;;11.07;;
27558;SDS011;15002;52.028;5.670;2022-12-18T07:37:58;20.30;;;12.00;;
27558;SDS011;15002;52.028;5.670;2022-12-18T07:40:23;21.38;;;11.63;;
27558;SDS011;15002;52.028;5.670;2022-12-18T07:42:49;21.20;;;11.25;;
27558;SDS011;15002;52.028;5.670;2022-12-18T07:45:14;21.10;;;10.90;;
27558;SDS011;15002;52.028;5.670;2022-12-18T07:47:40;21.70;;;11.85;;
27558;SDS011;15002;52.028;5.670;2022-12-18T07:50:06;18.00;;;10.15;;
27558;SDS011;15002;52.028;5.670;2022-12-18T07:52:32;20.58;;;11.10;;
27558;SDS011;15002;52.028;5.670;2022-12-18T07:54:57;17.58;;;10.23;;
27558;SDS011;15002;52.028;5.670;2022-12-18T07:57:23;23.30;;;10.52;;
27558;SDS011;15002;52.028;5.670;2022-12-18T07:59:49;21.02;;;10.57;;
27558;SDS011;15002;52.028;5.670;2022-12-18T08:02:14;19.23;;;10.55;;
27558;SDS011;15002;52.028;5.670;2022-12-18T08:04:40;22.92;;;11.43;;
27558;SDS011;15002;52.028;5.670;2022-12-18T08:07:06;21.80;;;10.95;;
27558;SDS011;15002;52.028;5.670;2022-12-18T08:09:31;20.38;;;11.30;;
27558;SDS011;15002;52.028;5.670;2022-12-18T08:11:57;21.00;;;10.88;;
27558;SDS011;15002;52.028;5.670;2022-12-18T08:14:22;19.35;;;10.02;;
27558;SDS011;15002;52.028;5.670;2022-12-18T08:16:48;20.40;;;10.55;;
27558;SDS011;15002;52.028;5.670;2022-12-18T08:19:14;21.05;;;10.70;;
27558;SDS011;15002;52.028;5.670;2022-12-18T08:21:39;18.70;;;9.93;;
27558;SDS011;15002;52.028;5.670;2022-12-18T08:24:05;22.65;;;10.85;;
27558;SDS011;15002;52.028;5.670;2022-12-18T08:26:31;21.92;;;9.95;;
27558;SDS011;15002;52.028;5.670;2022-12-18T08:28:58;17.40;;;10.20;;
27558;SDS011;15002;52.028;5.670;2022-12-18T08:31:26;18.35;;;9.45;;
27558;SDS011;15002;52.028;5.670;2022-12-18T08:33:52;17.23;;;9.38;;
27558;SDS011;15002;52.028;5.670;2022-12-18T08:36:18;17.85;;;9.15;;
27558;SDS011;15002;52.028;5.670;2022-12-18T08:38:45;18.00;;;9.40;;
27558;SDS011;15002;52.028;5.670;2022-12-18T08:41:12;15.77;;;9.73;;
27558;SDS011;15002;52.028;5.670;2022-12-18T08:43:39;15.93;;;9.07;;
27558;SDS011;15002;52.028;5.670;2022-12-18T08:46:24;16.38;;;8.00;;
27558;SDS011;15002;52.028;5.670;2022-12-18T08:48:51;13.45;;;8.35;;
27558;SDS011;15002;52.028;5.670;2022-12-18T08:51:18;16.55;;;9.88;;
27558;SDS011;15002;52.028;5.670;2022-12-18T08:53:45;14.82;;;8.10;;
27558;SDS011;15002;52.028;5.670;2022-12-18T08:56:11;17.92;;;10.18;;
27558;SDS011;15002;52.028;5.670;2022-12-18T08:58:38;18.10;;;10.40;;
27558;SDS011;15002;52.028;5.670;2022-12-18T09:01:04;95.20;;;53.08;;
27558;SDS011;15002;52.028;5.670;2022-12-18T09:03:32;28.40;;;15.25;;
27558;SDS011;15002;52.028;5.670;2022-12-18T09:05:58;16.27;;;9.60;;
27558;SDS011;15002;52.028;5.670;2022-12-18T09:08:24;15.18;;;8.88;;
27558;SDS011;15002;52.028;5.670;2022-12-18T09:10:50;17.63;;;8.40;;
27558;SDS011;15002;52.028;5.670;2022-12-18T09:13:16;16.63;;;9.35;;
27558;SDS011;15002;52.028;5.670;2022-12-18T09:15:52;16.63;;;8.10;;
27558;SDS011;15002;52.028;5.670;2022-12-18T09:18:19;15.05;;;8.88;;
27558;SDS011;15002;52.028;5.670;2022-12-18T09:20:47;15.90;;;8.38;;
27558;SDS011;15002;52.028;5.670;2022-12-18T09:23:13;15.32;;;8.57;;
27558;SDS011;15002;52.028;5.670;2022-12-18T09:25:38;15.63;;;8.80;;
27558;SDS011;15002;52.028;5.670;2022-12-18T09:28:05;16.00;;;8.05;;
27558;SDS011;15002;52.028;5.670;2022-12-18T09:30:37;14.98;;;8.02;;
27558;SDS011;15002;52.028;5.670;2022-12-18T09:33:07;17.80;;;8.43;;
27558;SDS011;15002;52.028;5.670;2022-12-18T09:35:35;12.73;;;7.38;;
27558;SDS011;15002;52.028;5.670;2022-12-18T09:38:01;13.20;;;7.50;;
27558;SDS011;15002;52.028;5.670;2022-12-18T09:40:28;14.32;;;8.63;;
27558;SDS011;15002;52.028;5.670;2022-12-18T09:43:02;13.95;;;8.05;;
27558;SDS011;15002;52.028;5.670;2022-12-18T09:45:40;16.50;;;7.65;;
27558;SDS011;15002;52.028;5.670;2022-12-18T09:51:13;16.08;;;7.53;;
27558;SDS011;15002;52.028;5.670;2022-12-18T09:53:44;12.55;;;7.40;;
27558;SDS011;15002;52.028;5.670;2022-12-18T09:56:16;15.38;;;9.30;;
27558;SDS011;15002;52.028;5.670;2022-12-18T09:58:49;14.73;;;8.05;;
27558;SDS011;15002;52.028;5.670;2022-12-18T10:01:23;17.27;;;9.10;;
27558;SDS011;15002;52.028;5.670;2022-12-18T10:03:49;21.77;;;14.15;;
27558;SDS011;15002;52.028;5.670;2022-12-18T10:15:06;13.40;;;7.13;;
27558;SDS011;15002;52.028;5.670;2022-12-18T10:17:51;17.77;;;7.90;;
27558;SDS011;15002;52.028;5.670;2022-12-18T10:20:41;12.75;;;7.05;;
27558;SDS011;15002;52.028;5.670;2022-12-18T10:26:27;12.38;;;6.82;;
27558;SDS011;15002;52.028;5.670;2022-12-18T10:28:53;12.30;;;7.32;;
27558;SDS011;15002;52.028;5.670;2022-12-18T10:31:23;17.05;;;8.32;;
27558;SDS011;15002;52.028;5.670;2022-12-18T10:33:49;14.70;;;7.13;;
27558;SDS011;15002;52.028;5.670;2022-12-18T10:36:15;16.63;;;7.75;;
27558;SDS011;15002;52.028;5.670;2022-12-18T10:38:41;17.38;;;7.85;;
27558;SDS011;15002;52.028;5.670;2022-12-18T10:44:09;14.95;;;7.97;;
27558;SDS011;15002;52.028;5.670;2022-12-18T10:46:44;12.82;;;7.10;;
27558;SDS011;15002;52.028;5.670;2022-12-18T10:49:28;17.40;;;7.70;;
27558;SDS011;15002;52.028;5.670;2022-12-18T10:52:30;13.00;;;7.22;;
27558;SDS011;15002;52.028;5.670;2022-12-18T10:54:51;17.13;;;9.05;;
27558;SDS011;15002;52.028;5.670;2022-12-18T10:59:52;16.35;;;9.50;;
27558;SDS011;15002;52.028;5.670;2022-12-18T11:02:27;34.55;;;20.13;;
27558;SDS011;15002;52.028;5.670;2022-12-18T11:04:58;17.42;;;10.52;;
27558;SDS011;15002;52.028;5.670;2022-12-18T11:07:24;14.15;;;7.40;;
27558;SDS011;15002;52.028;5.670;2022-12-18T11:09:59;17.08;;;8.43;;
27558;SDS011;15002;52.028;5.670;2022-12-18T11:12:28;13.43;;;7.25;;
27558;SDS011;15002;52.028;5.670;2022-12-18T11:14:54;14.75;;;7.88;;
27558;SDS011;15002;52.028;5.670;2022-12-18T11:17:25;14.70;;;7.68;;
27558;SDS011;15002;52.028;5.670;2022-12-18T11:19:59;14.15;;;8.07;;
27558;SDS011;15002;52.028;5.670;2022-12-18T11:22:31;16.20;;;8.27;;
27558;SDS011;15002;52.028;5.670;2022-12-18T11:25:00;17.17;;;8.73;;
27558;SDS011;15002;52.028;5.670;2022-12-18T11:27:27;13.65;;;8.23;;
27558;SDS011;15002;52.028;5.670;2022-12-18T11:30:06;18.40;;;8.60;;
27558;SDS011;15002;52.028;5.670;2022-12-18T11:32:44;15.40;;;8.10;;
27558;SDS011;15002;52.028;5.670;2022-12-18T11:35:16;16.85;;;8.30;;
27558;SDS011;15002;52.028;5.670;2022-12-18T11:37:47;12.93;;;7.65;;
27558;SDS011;15002;52.028;5.670;2022-12-18T11:40:26;15.30;;;8.50;;
27558;SDS011;15002;52.028;5.670;2022-12-18T11:46:13;14.27;;;8.07;;
27558;SDS011;15002;52.028;5.670;2022-12-18T11:48:47;14.10;;;9.00;;
27558;SDS011;15002;52.028;5.670;2022-12-18T11:51:30;14.02;;;7.40;;
27558;SDS011;15002;52.028;5.670;2022-12-18T11:54:12;19.27;;;8.70;;
27558;SDS011;15002;52.028;5.670;2022-12-18T11:57:23;16.15;;;8.05;;
27558;SDS011;15002;52.028;5.670;2022-12-18T11:59:56;15.48;;;8.70;;
27558;SDS011;15002;52.028;5.670;2022-12-18T12:07:59;18.30;;;8.88;;
27558;SDS011;15002;52.028;5.670;2022-12-18T12:10:52;23.35;;;8.80;;
27558;SDS011;15002;52.028;5.670;2022-12-18T12:13:47;18.02;;;8.65;;
27558;SDS011;15002;52.028;5.670;2022-12-18T12:16:56;15.88;;;7.57;;
27558;SDS011;15002;52.028;5.670;2022-12-18T12:27:36;18.45;;;9.90;;
27558;SDS011;15002;52.028;5.670;2022-12-18T12:30:16;20.27;;;8.52;;
27558;SDS011;15002;52.028;5.670;2022-12-18T12:33:04;18.40;;;9.82;;
27558;SDS011;15002;52.028;5.670;2022-12-18T12:38:12;16.25;;;8.43;;
27558;SDS011;15002;52.028;5.670;2022-12-18T12:40:51;18.35;;;8.63;;
27558;SDS011;15002;52.028;5.670;2022-12-18T12:43:59;19.65;;;9.85;;
27558;SDS011;15002;52.028;5.670;2022-12-18T12:46:30;15.02;;;8.98;;
27558;SDS011;15002;52.028;5.670;2022-12-18T12:49:04;17.02;;;9.70;;
27558;SDS011;15002;52.028;5.670;2022-12-18T12:51:40;14.90;;;8.68;;
27558;SDS011;15002;52.028;5.670;2022-12-18T12:54:17;17.52;;;9.38;;
27558;SDS011;15002;52.028;5.670;2022-12-18T13:05:16;16.45;;;8.80;;
27558;SDS011;15002;52.028;5.670;2022-12-18T13:07:56;17.40;;;9.23;;
27558;SDS011;15002;52.028;5.670;2022-12-18T13:10:31;15.70;;;8.82;;
27558;SDS011;15002;52.028;5.670;2022-12-18T13:20:44;16.05;;;9.52;;
27558;SDS011;15002;52.028;5.670;2022-12-18T13:23:28;16.40;;;8.98;;
27558;SDS011;15002;52.028;5.670;2022-12-18T13:33:39;17.90;;;9.88;;
27558;SDS011;15002;52.028;5.670;2022-12-18T13:36:12;19.15;;;9.10;;
27558;SDS011;15002;52.028;5.670;2022-12-18T13:38:38;20.05;;;9.90;;
27558;SDS011;15002;52.028;5.670;2022-12-18T13:41:21;15.63;;;8.60;;
27558;SDS011;15002;52.028;5.670;2022-12-18T13:43:49;19.25;;;9.45;;
27558;SDS011;15002;52.028;5.670;2022-12-18T13:49:02;16.92;;;9.73;;
27558;SDS011;15002;52.028;5.670;2022-12-18T13:51:50;17.15;;;9.90;;
27558;SDS011;15002;52.028;5.670;2022-12-18T13:54:22;25.70;;;10.95;;
27558;SDS011;15002;52.028;5.670;2022-12-18T13:56:49;20.92;;;12.10;;
27558;SDS011;15002;52.028;5.670;2022-12-18T13:59:16;19.25;;;10.02;;
27558;SDS011;15002;52.028;5.670;2022-12-18T14:01:53;21.13;;;11.75;;
27558;SDS011;15002;52.028;5.670;2022-12-18T14:06:50;17.40;;;9.85;;
27558;SDS011;15002;52.028;5.670;2022-12-18T14:09:20;14.93;;;9.25;;
27558;SDS011;15002;52.028;5.670;2022-12-18T14:11:54;20.98;;;9.00;;
27558;SDS011;15002;52.028;5.670;2022-12-18T14:14:45;16.90;;;9.05;;
27558;SDS011;15002;52.028;5.670;2022-12-18T14:17:13;19.48;;;9.98;;
27558;SDS011;15002;52.028;5.670;2022-12-18T14:19:58;18.58;;;9.50;;
27558;SDS011;15002;52.028;5.670;2022-12-18T14:22:24;19.83;;;9.48;;
27558;SDS011;15002;52.028;5.670;2022-12-18T14:25:13;18.60;;;10.70;;
27558;SDS011;15002;52.028;5.670;2022-12-18T14:27:49;19.98;;;9.60;;
27558;SDS011;15002;52.028;5.670;2022-12-18T14:35:33;18.00;;;10.07;;
27558;SDS011;15002;52.028;5.670;2022-12-18T14:38:18;23.95;;;9.60;;
27558;SDS011;15002;52.028;5.670;2022-12-18T14:41:02;22.88;;;9.88;;
27558;SDS011;15002;52.028;5.670;2022-12-18T14:46:00;20.15;;;9.40;;
27558;SDS011;15002;52.028;5.670;2022-12-18T14:48:37;23.65;;;10.02;;
27558;SDS011;15002;52.028;5.670;2022-12-18T14:51:15;20.67;;;10.32;;
27558;SDS011;15002;52.028;5.670;2022-12-18T14:53:47;20.55;;;9.63;;
27558;SDS011;15002;52.028;5.670;2022-12-18T14:56:26;15.95;;;8.98;;
27558;SDS011;15002;52.028;5.670;2022-12-18T14:59:06;20.30;;;11.15;;
27558;SDS011;15002;52.028;5.670;2022-12-18T15:01:39;19.30;;;9.77;;
27558;SDS011;15002;52.028;5.670;2022-12-18T15:09:36;17.70;;;10.07;;
27558;SDS011;15002;52.028;5.670;2022-12-18T15:12:03;18.65;;;10.48;;
27558;SDS011;15002;52.028;5.670;2022-12-18T15:17:18;22.60;;;10.85;;
27558;SDS011;15002;52.028;5.670;2022-12-18T15:19:48;20.98;;;10.30;;
27558;SDS011;15002;52.028;5.670;2022-12-18T15:22:26;16.92;;;9.90;;
27558;SDS011;15002;52.028;5.670;2022-12-18T15:24:52;23.20;;;9.90;;
27558;SDS011;15002;52.028;5.670;2022-12-18T15:27:23;17.88;;;9.90;;
27558;SDS011;15002;52.028;5.670;2022-12-18T15:32:26;18.90;;;10.20;;
27558;SDS011;15002;52.028;5.670;2022-12-18T15:35:01;19.80;;;10.05;;
27558;SDS011;15002;52.028;5.670;2022-12-18T15:37:47;19.50;;;10.02;;
27558;SDS011;15002;52.028;5.670;2022-12-18T15:40:15;21.40;;;10.98;;
27558;SDS011;15002;52.028;5.670;2022-12-18T15:42:42;25.63;;;10.55;;
27558;SDS011;15002;52.028;5.670;2022-12-18T15:45:26;20.65;;;10.70;;
27558;SDS011;15002;52.028;5.670;2022-12-18T15:47:52;21.55;;;10.73;;
27558;SDS011;15002;52.028;5.670;2022-12-18T15:50:18;22.83;;;11.63;;
27558;SDS011;15002;52.028;5.670;2022-12-18T15:52:44;18.70;;;10.50;;
27558;SDS011;15002;52.028;5.670;2022-12-18T15:55:16;20.85;;;10.52;;
27558;SDS011;15002;52.028;5.670;2022-12-18T15:58:03;22.58;;;11.15;;
27558;SDS011;15002;52.028;5.670;2022-12-18T16:00:29;22.52;;;11.45;;
27558;SDS011;15002;52.028;5.670;2022-12-18T16:02:56;24.00;;;11.65;;
27558;SDS011;15002;52.028;5.670;2022-12-18T16:05:22;22.08;;;11.80;;
27558;SDS011;15002;52.028;5.670;2022-12-18T16:07:48;25.48;;;11.65;;
27558;SDS011;15002;52.028;5.670;2022-12-18T16:10:14;21.35;;;11.07;;
27558;SDS011;15002;52.028;5.670;2022-12-18T16:12:40;21.38;;;11.93;;
27558;SDS011;15002;52.028;5.670;2022-12-18T16:15:07;21.48;;;11.43;;
27558;SDS011;15002;52.028;5.670;2022-12-18T16:17:38;22.85;;;11.52;;
27558;SDS011;15002;52.028;5.670;2022-12-18T16:20:04;22.83;;;11.68;;
27558;SDS011;15002;52.028;5.670;2022-12-18T16:22:31;24.90;;;12.07;;
27558;SDS011;15002;52.028;5.670;2022-12-18T16:24:57;20.40;;;11.60;;
27558;SDS011;15002;52.028;5.670;2022-12-18T16:27:23;23.23;;;12.07;;
27558;SDS011;15002;52.028;5.670;2022-12-18T16:29:49;25.48;;;11.43;;